createdAt,value
2022-12-28T00:02:43.648Z,2.39
2022-12-28T00:06:47.066Z,2.38
2022-12-28T00:11:08.211Z,2.36
2022-12-28T00:15:10.958Z,2.29
2022-12-28T00:19:15.939Z,2.22
2022-12-28T00:23:17.829Z,2.14
2022-12-28T00:27:19.732Z,2.08
2022-12-28T00:31:22.095Z,2.03
2022-12-28T00:35:23.989Z,1.98
2022-12-28T00:39:26.053Z,1.97
2022-12-28T00:43:28.214Z,1.95
2022-12-28T00:47:30.134Z,1.93
2022-12-28T00:51:31.997Z,1.88
2022-12-28T00:55:34.528Z,1.81
2022-12-28T00:59:36.422Z,1.77
2022-12-28T01:03:38.434Z,1.75
2022-12-28T01:07:40.311Z,1.75
2022-12-28T01:11:42.155Z,1.77
2022-12-28T01:15:44.022Z,1.80
2022-12-28T01:19:51.991Z,1.81
2022-12-28T01:23:58.949Z,1.78
2022-12-28T01:28:00.827Z,1.78
2022-12-28T01:32:02.853Z,1.79
2022-12-28T01:36:07.142Z,1.83
2022-12-28T01:40:13.429Z,1.85
2022-12-28T01:44:15.499Z,1.81
2022-12-28T01:48:24.537Z,1.75
2022-12-28T01:52:41.323Z,1.71
2022-12-28T01:56:43.994Z,1.70
2022-12-28T02:00:46.057Z,1.71
2022-12-28T02:04:48.888Z,1.73
2022-12-28T02:09:13.849Z,1.74
2022-12-28T02:13:17.599Z,1.72
2022-12-28T02:17:19.577Z,1.67
2022-12-28T02:21:31.433Z,1.62
2022-12-28T02:25:33.773Z,1.59
2022-12-28T02:29:45.167Z,1.58
2022-12-28T02:34:15.000Z,1.57
2022-12-28T02:38:37.333Z,1.58
2022-12-28T02:42:40.644Z,1.58
2022-12-28T02:47:02.776Z,1.53
2022-12-28T02:51:12.375Z,1.50
2022-12-28T02:55:51.851Z,1.48
2022-12-28T02:59:54.242Z,1.47
2022-12-28T03:04:07.143Z,1.44
2022-12-28T03:08:19.672Z,1.41
2022-12-28T03:12:29.112Z,1.36
2022-12-28T03:16:57.922Z,1.27
2022-12-28T03:21:25.050Z,1.16
2022-12-28T03:25:52.610Z,1.06
2022-12-28T03:30:36.145Z,0.97
2022-12-28T03:34:38.807Z,0.93
2022-12-28T03:38:48.083Z,0.91
2022-12-28T03:43:13.211Z,0.90
2022-12-28T03:47:17.192Z,0.91
2022-12-28T03:51:22.450Z,0.90
2022-12-28T03:55:25.280Z,0.83
2022-12-28T03:59:27.615Z,0.74
2022-12-28T04:03:30.484Z,0.62
2022-12-28T04:07:32.390Z,0.51
2022-12-28T04:11:34.524Z,0.43
2022-12-28T04:15:36.755Z,0.40
2022-12-28T04:19:39.179Z,0.39
2022-12-28T04:23:42.244Z,0.39
2022-12-28T04:27:49.982Z,0.39
2022-12-28T04:32:10.429Z,0.35
2022-12-28T04:36:15.903Z,0.27
2022-12-28T04:40:18.739Z,0.17
2022-12-28T04:44:20.690Z,0.08
2022-12-28T04:48:22.527Z,0.03
2022-12-28T04:52:24.465Z,0.02
2022-12-28T04:56:26.731Z,0.01
2022-12-28T05:00:28.767Z,0.02
2022-12-28T05:04:30.682Z,0.00
2022-12-28T05:08:34.575Z,-0.04
2022-12-28T05:12:36.473Z,-0.08
2022-12-28T05:16:38.390Z,-0.15
2022-12-28T05:20:40.664Z,-0.18
2022-12-28T05:24:42.504Z,-0.20
2022-12-28T05:28:44.826Z,-0.20
2022-12-28T05:32:46.836Z,-0.19
2022-12-28T05:36:48.849Z,-0.17
2022-12-28T05:40:50.850Z,-0.18
2022-12-28T05:44:52.697Z,-0.22
2022-12-28T05:48:55.137Z,-0.30
2022-12-28T05:52:58.059Z,-0.38
2022-12-28T05:57:00.051Z,-0.43
2022-12-28T06:01:09.166Z,-0.44
2022-12-28T06:05:11.085Z,-0.42
2022-12-28T06:09:13.633Z,-0.39
2022-12-28T06:13:15.477Z,-0.35
2022-12-28T06:17:17.337Z,-0.31
2022-12-28T06:21:39.246Z,-0.30
2022-12-28T06:25:41.237Z,-0.36
2022-12-28T06:29:43.067Z,-0.44
2022-12-28T06:33:46.289Z,-0.52
2022-12-28T06:37:48.970Z,-0.53
2022-12-28T06:41:51.001Z,-0.52
2022-12-28T06:45:56.903Z,-0.48
2022-12-28T06:49:59.155Z,-0.47
2022-12-28T06:54:01.837Z,-0.46
2022-12-28T06:58:03.722Z,-0.47
2022-12-28T07:02:06.292Z,-0.50
2022-12-28T07:06:09.354Z,-0.51
2022-12-28T07:10:11.188Z,-0.47
2022-12-28T07:14:13.448Z,-0.41
2022-12-28T07:18:15.396Z,-0.33
2022-12-28T07:22:17.329Z,-0.27
2022-12-28T07:26:21.686Z,-0.23
2022-12-28T07:30:23.585Z,-0.21
2022-12-28T07:34:25.576Z,-0.17
2022-12-28T07:38:27.533Z,-0.07
2022-12-28T07:42:31.320Z,0.09
2022-12-28T07:46:35.846Z,0.23
2022-12-28T07:50:38.264Z,0.35
2022-12-28T07:54:40.287Z,0.43
2022-12-28T08:02:48.164Z,0.47
2022-12-28T08:06:50.061Z,0.49
2022-12-28T08:10:51.917Z,0.53
2022-12-28T08:14:53.759Z,0.57
2022-12-28T08:18:55.710Z,0.63
2022-12-28T08:22:57.680Z,0.67
2022-12-28T08:26:59.613Z,0.70
2022-12-28T08:31:06.816Z,0.72
2022-12-28T08:35:08.987Z,0.77
2022-12-28T08:39:10.814Z,0.85
2022-12-28T08:43:12.747Z,0.95
2022-12-28T08:47:14.663Z,1.07
2022-12-28T08:51:18.272Z,1.16
2022-12-28T08:55:20.434Z,1.24
2022-12-28T08:59:22.592Z,1.30
2022-12-28T09:03:24.530Z,1.39
2022-12-28T09:07:26.396Z,1.49
2022-12-28T09:11:28.456Z,1.60
2022-12-28T09:15:30.311Z,1.72
2022-12-28T09:19:32.203Z,1.81
2022-12-28T09:23:34.609Z,1.86
2022-12-28T09:27:36.569Z,1.86
2022-12-28T09:31:40.150Z,1.88
2022-12-28T09:35:42.262Z,1.93
2022-12-28T09:39:44.145Z,2.02
2022-12-28T09:43:46.389Z,2.12
2022-12-28T09:47:54.671Z,2.22
2022-12-28T09:52:22.462Z,2.27
2022-12-28T09:56:33.749Z,2.32
2022-12-28T10:00:43.361Z,2.40
2022-12-28T10:04:49.500Z,2.51
2022-12-28T10:08:54.991Z,2.60
2022-12-28T10:13:02.593Z,2.69
2022-12-28T10:17:06.987Z,2.80
2022-12-28T10:21:09.962Z,2.95
2022-12-28T10:25:26.348Z,3.01
2022-12-28T10:29:32.621Z,3.02
2022-12-28T10:33:38.933Z,3.05
2022-12-28T10:37:44.326Z,3.10
2022-12-28T10:41:47.756Z,3.15
2022-12-28T10:45:51.217Z,3.16
2022-12-28T10:50:35.230Z,3.16
2022-12-28T10:54:27.845Z,3.18
2022-12-28T10:58:34.387Z,3.23
2022-12-28T11:02:36.710Z,3.26
2022-12-28T11:07:02.185Z,3.25
2022-12-28T11:11:04.238Z,3.25
2022-12-28T11:15:08.332Z,3.29
2022-12-28T11:19:12.357Z,3.32
2022-12-28T11:23:34.304Z,3.32
2022-12-28T11:27:36.423Z,3.34
2022-12-28T11:31:49.045Z,3.36
2022-12-28T11:35:59.407Z,3.33
2022-12-28T11:40:01.793Z,3.29
2022-12-28T11:44:04.726Z,3.28
2022-12-28T11:48:38.034Z,3.27
2022-12-28T11:52:49.251Z,3.27
2022-12-28T11:56:51.120Z,3.24
2022-12-28T12:00:53.080Z,3.20
2022-12-28T12:04:55.055Z,3.16
2022-12-28T12:08:56.960Z,3.14
2022-12-28T12:13:01.483Z,3.16
2022-12-28T12:17:11.858Z,3.18
2022-12-28T12:21:30.777Z,3.19
2022-12-28T12:25:46.051Z,3.20
2022-12-28T12:29:59.233Z,3.24
2022-12-28T12:34:19.581Z,3.28
2022-12-28T12:39:03.704Z,3.28
2022-12-28T12:43:17.837Z,3.30
2022-12-28T12:47:46.541Z,3.33
2022-12-28T12:52:27.513Z,3.36
2022-12-28T12:56:52.697Z,3.37
2022-12-28T13:01:06.798Z,3.37
2022-12-28T13:05:19.013Z,3.38
2022-12-28T13:09:24.634Z,3.41
2022-12-28T13:13:35.875Z,3.44
2022-12-28T13:17:37.847Z,3.43
2022-12-28T13:21:45.694Z,3.40
2022-12-28T13:25:50.740Z,3.34
2022-12-28T13:29:54.360Z,3.30
2022-12-28T13:34:03.606Z,3.27
2022-12-28T13:38:08.737Z,3.27
2022-12-28T13:42:29.603Z,3.27
2022-12-28T13:46:31.734Z,3.24
2022-12-28T13:50:38.671Z,3.22
2022-12-28T13:54:46.521Z,3.19
2022-12-28T13:58:52.429Z,3.19
2022-12-28T14:02:56.451Z,3.20
2022-12-28T14:06:59.197Z,3.20
2022-12-28T14:11:02.402Z,3.19
2022-12-28T14:15:06.284Z,3.17
2022-12-28T14:19:09.400Z,3.16
2022-12-28T14:23:29.298Z,3.15
2022-12-28T14:27:36.631Z,3.12
2022-12-28T14:31:38.983Z,3.08
2022-12-28T14:35:54.632Z,3.04
2022-12-28T14:40:03.744Z,3.03
2022-12-28T14:44:12.664Z,3.02
2022-12-28T14:48:21.196Z,3.01
2022-12-28T14:52:41.170Z,2.98
2022-12-28T14:56:47.602Z,2.99
2022-12-28T15:01:05.503Z,3.00
2022-12-28T15:05:37.573Z,3.00
2022-12-28T15:09:39.467Z,2.97
2022-12-28T15:13:42.745Z,2.94
2022-12-28T15:17:46.586Z,2.92
2022-12-28T15:21:48.436Z,2.90
2022-12-28T15:25:50.800Z,2.87
2022-12-28T15:30:09.939Z,2.81
2022-12-28T15:34:14.533Z,2.76
2022-12-28T15:38:16.469Z,2.73
2022-12-28T15:42:18.450Z,2.70
2022-12-28T15:46:20.678Z,2.66
2022-12-28T15:50:22.548Z,2.60
2022-12-28T15:54:24.501Z,2.53
2022-12-28T15:58:27.222Z,2.48
2022-12-28T16:02:29.222Z,2.48
2022-12-28T16:06:34.242Z,2.49
2022-12-28T16:10:39.557Z,2.48
2022-12-28T16:14:41.559Z,2.47
2022-12-28T16:18:43.523Z,2.45
2022-12-28T16:22:45.871Z,2.46
2022-12-28T16:26:47.796Z,2.47
2022-12-28T16:30:49.883Z,2.51
2022-12-28T16:34:54.528Z,2.54
2022-12-28T16:38:56.825Z,2.56
2022-12-28T16:42:58.673Z,2.55
2022-12-28T16:47:00.610Z,2.51
2022-12-28T16:51:03.130Z,2.50
2022-12-28T16:55:05.241Z,2.51
2022-12-28T16:59:07.201Z,2.57
2022-12-28T17:03:09.075Z,2.63
2022-12-28T17:07:10.983Z,2.66
2022-12-28T17:11:13.298Z,2.66
2022-12-28T17:15:15.390Z,2.66
2022-12-28T17:19:17.284Z,2.68
2022-12-28T17:23:19.193Z,2.71
2022-12-28T17:27:21.047Z,2.71
2022-12-28T17:31:23.129Z,2.71
2022-12-28T17:35:25.546Z,2.71
2022-12-28T17:39:27.529Z,2.73
2022-12-28T17:43:30.671Z,2.76
2022-12-28T17:47:32.538Z,2.77
2022-12-28T17:51:34.552Z,2.75
2022-12-28T17:55:37.022Z,2.74
2022-12-28T17:59:39.057Z,2.75
2022-12-28T18:03:41.177Z,2.78
2022-12-28T18:07:43.198Z,2.80
2022-12-28T18:11:45.138Z,2.80
2022-12-28T18:15:47.280Z,2.78
2022-12-28T18:19:53.035Z,2.79
2022-12-28T18:23:55.007Z,2.83
2022-12-28T18:27:57.085Z,2.87
2022-12-28T18:31:59.277Z,2.91
2022-12-28T18:36:05.709Z,2.92
2022-12-28T18:40:09.151Z,2.91
2022-12-28T18:44:11.097Z,2.92
2022-12-28T18:48:14.403Z,2.94
2022-12-28T18:52:18.046Z,2.97
2022-12-28T18:56:21.082Z,3.00
2022-12-28T19:00:24.547Z,3.02
2022-12-28T19:04:28.883Z,3.03
2022-12-28T19:08:33.047Z,3.02
2022-12-28T19:12:34.973Z,3.01
2022-12-28T19:16:36.925Z,3.05
2022-12-28T19:20:38.879Z,3.09
2022-12-28T19:24:40.783Z,3.11
2022-12-28T19:28:44.865Z,3.12
2022-12-28T19:32:46.702Z,3.10
2022-12-28T19:36:48.739Z,3.10
2022-12-28T19:40:50.606Z,3.12
2022-12-28T19:44:52.514Z,3.16
2022-12-28T19:48:54.379Z,3.20
2022-12-28T19:52:56.245Z,3.23
2022-12-28T19:56:58.188Z,3.24
2022-12-28T20:01:09.438Z,3.24
2022-12-28T20:05:11.433Z,3.26
2022-12-28T20:09:14.389Z,3.29
2022-12-28T20:13:16.707Z,3.34
2022-12-28T20:17:19.926Z,3.39
2022-12-28T20:21:23.899Z,3.42
2022-12-28T20:25:25.828Z,3.42
2022-12-28T20:29:27.891Z,3.43
2022-12-28T20:33:31.598Z,3.46
2022-12-28T20:37:33.522Z,3.50
2022-12-28T20:41:56.038Z,3.54
2022-12-28T20:45:58.406Z,3.55
2022-12-28T20:50:00.288Z,3.54
2022-12-28T20:54:02.384Z,3.54
2022-12-28T20:58:04.467Z,3.57
2022-12-28T21:02:08.539Z,3.60
2022-12-28T21:06:11.365Z,3.62
2022-12-28T21:10:13.673Z,3.62
2022-12-28T21:14:15.567Z,3.60
2022-12-28T21:18:18.632Z,3.59
2022-12-28T21:22:20.498Z,3.61
2022-12-28T21:26:22.790Z,3.64
2022-12-28T21:30:25.166Z,3.65
2022-12-28T21:34:28.960Z,3.64
2022-12-28T21:38:32.331Z,3.61
2022-12-28T21:42:35.435Z,3.60
2022-12-28T21:46:37.922Z,3.61
2022-12-28T21:50:39.842Z,3.63
2022-12-28T21:54:41.757Z,3.64
2022-12-28T21:58:46.952Z,3.64
2022-12-28T22:03:07.669Z,3.62
2022-12-28T22:07:12.434Z,3.61
2022-12-28T22:11:32.917Z,3.63
2022-12-28T22:15:53.138Z,3.65
2022-12-28T22:19:54.974Z,3.68
2022-12-28T22:23:56.973Z,3.68
2022-12-28T22:27:59.649Z,3.67
2022-12-28T22:32:01.589Z,3.64
2022-12-28T22:36:16.354Z,3.64
2022-12-28T22:40:19.121Z,3.67
2022-12-28T22:44:21.009Z,3.69
2022-12-28T22:48:23.153Z,3.69
2022-12-28T22:52:25.032Z,3.68
2022-12-28T22:56:26.950Z,3.65
2022-12-28T23:00:28.955Z,3.64
2022-12-28T23:04:31.132Z,3.66
2022-12-28T23:08:33.715Z,3.69
2022-12-28T23:12:35.550Z,3.67
2022-12-28T23:16:37.445Z,3.64
2022-12-28T23:20:58.231Z,3.60
2022-12-28T23:25:18.769Z,3.55
2022-12-28T23:29:23.257Z,3.53
2022-12-28T23:33:29.373Z,3.53
2022-12-28T23:37:31.691Z,3.54
2022-12-28T23:41:48.772Z,3.53
2022-12-28T23:45:50.837Z,3.51
2022-12-28T23:49:52.846Z,3.48
2022-12-28T23:53:54.735Z,3.47
2022-12-28T23:57:56.593Z,3.49
